createdAt,value
2019-05-18T00:00:32.038Z,20.13
2019-05-18T00:03:02.479Z,22.10
2019-05-18T00:05:32.499Z,21.63
2019-05-18T00:08:03.119Z,19.10
2019-05-18T00:10:33.235Z,19.67
2019-05-18T00:13:03.361Z,22.90
2019-05-18T00:15:33.505Z,19.90
2019-05-18T00:18:04.003Z,18.57
2019-05-18T00:20:34.260Z,21.27
2019-05-18T00:23:04.523Z,22.50
2019-05-18T00:25:34.815Z,21.13
2019-05-18T00:28:04.687Z,20.30
2019-05-18T00:30:34.951Z,22.40
2019-05-18T00:33:05.701Z,23.50
2019-05-18T00:35:35.798Z,26.40
2019-05-18T00:38:06.213Z,21.93
2019-05-18T00:40:36.459Z,24.00
2019-05-18T00:43:06.474Z,23.70
2019-05-18T00:45:36.685Z,22.57
2019-05-18T00:48:08.396Z,26.03
2019-05-18T00:50:38.457Z,24.90
2019-05-18T00:53:08.796Z,24.40
2019-05-18T00:55:38.869Z,21.47
2019-05-18T00:58:09.141Z,26.80
2019-05-18T01:00:39.446Z,22.13
2019-05-18T01:03:09.971Z,24.73
2019-05-18T01:05:39.989Z,27.63
2019-05-18T01:08:10.314Z,24.33
2019-05-18T01:10:40.774Z,25.70
2019-05-18T01:13:10.781Z,25.67
2019-05-18T01:15:41.005Z,24.40
2019-05-18T01:18:11.336Z,28.70
2019-05-18T01:20:43.051Z,23.20
2019-05-18T01:23:13.592Z,24.17
2019-05-18T01:25:44.100Z,24.47
2019-05-18T01:28:14.255Z,23.80
2019-05-18T01:30:44.724Z,25.10
2019-05-18T01:33:14.774Z,23.90
2019-05-18T01:35:45.202Z,22.93
2019-05-18T01:38:15.786Z,23.63
2019-05-18T01:40:45.944Z,24.27
2019-05-18T01:43:16.068Z,22.53
2019-05-18T01:45:46.333Z,25.60
2019-05-18T01:48:16.457Z,23.57
2019-05-18T01:50:47.096Z,21.93
2019-05-18T01:53:17.421Z,23.47
2019-05-18T01:55:47.405Z,23.43
2019-05-18T01:58:17.747Z,21.37
2019-05-18T02:00:48.347Z,22.93
2019-05-18T02:03:18.559Z,23.40
2019-05-18T02:05:48.585Z,21.77
2019-05-18T02:08:18.639Z,24.90
2019-05-18T02:10:49.075Z,21.17
2019-05-18T02:13:19.007Z,27.07
2019-05-18T02:15:49.983Z,22.70
2019-05-18T02:18:28.690Z,27.40
2019-05-18T02:20:51.801Z,24.40
2019-05-18T02:23:22.083Z,25.40
2019-05-18T02:25:52.187Z,23.37
2019-05-18T02:28:22.451Z,24.77
2019-05-18T02:30:53.225Z,27.83
2019-05-18T02:33:23.191Z,25.60
2019-05-18T02:35:53.279Z,24.40
2019-05-18T02:38:23.879Z,33.80
2019-05-18T02:40:53.944Z,24.73
2019-05-18T02:43:24.189Z,27.50
2019-05-18T02:45:54.269Z,27.40
2019-05-18T02:48:24.838Z,26.13
2019-05-18T02:50:55.147Z,26.03
2019-05-18T02:53:25.521Z,31.33
2019-05-18T02:55:55.502Z,26.33
2019-05-18T02:58:25.660Z,28.23
2019-05-18T03:00:55.587Z,32.50
2019-05-18T03:03:26.273Z,30.50
2019-05-18T03:05:56.879Z,31.30
2019-05-18T03:08:27.343Z,27.70
2019-05-18T03:10:57.589Z,30.27
2019-05-18T03:13:27.781Z,32.40
2019-05-18T03:15:57.886Z,29.97
2019-05-18T03:18:28.627Z,34.20
2019-05-18T03:20:58.855Z,32.30
2019-05-18T03:23:29.119Z,34.13
2019-05-18T03:25:59.204Z,30.57
2019-05-18T03:28:29.399Z,31.50
2019-05-18T03:30:59.409Z,32.27
2019-05-18T03:33:30.658Z,29.57
2019-05-18T03:36:01.161Z,32.43
2019-05-18T03:38:31.625Z,27.90
2019-05-18T03:41:02.171Z,31.20
2019-05-18T03:43:32.298Z,29.97
2019-05-18T03:46:02.866Z,31.03
2019-05-18T03:48:34.395Z,32.60
2019-05-18T03:51:04.704Z,31.00
2019-05-18T03:53:35.595Z,28.80
2019-05-18T03:56:05.891Z,27.30
2019-05-18T03:58:36.480Z,31.63
2019-05-18T04:01:06.749Z,34.73
2019-05-18T04:03:37.310Z,32.33
2019-05-18T04:06:07.362Z,31.27
2019-05-18T04:08:38.930Z,34.87
2019-05-18T04:11:09.101Z,49.50
2019-05-18T04:13:39.389Z,33.83
2019-05-18T04:16:09.599Z,35.17
2019-05-18T04:18:39.602Z,33.00
2019-05-18T04:21:09.644Z,45.70
2019-05-18T04:23:40.283Z,37.20
2019-05-18T04:26:10.357Z,31.83
2019-05-18T04:28:40.266Z,33.63
2019-05-18T04:31:10.962Z,32.70
2019-05-18T04:33:40.837Z,36.90
2019-05-18T04:36:10.918Z,35.20
2019-05-18T04:38:41.749Z,33.30
2019-05-18T04:41:11.892Z,39.50
2019-05-18T04:43:41.888Z,38.67
2019-05-18T04:46:12.796Z,35.20
2019-05-18T04:48:43.133Z,35.30
2019-05-18T04:51:13.447Z,41.00
2019-05-18T04:53:44.630Z,37.10
2019-05-18T04:56:14.776Z,40.07
2019-05-18T04:58:45.029Z,37.60
2019-05-18T05:01:15.311Z,39.30
2019-05-18T05:03:45.853Z,39.20
2019-05-18T05:06:15.800Z,40.93
2019-05-18T05:08:46.080Z,40.03
2019-05-18T05:11:16.018Z,39.60
2019-05-18T05:13:46.451Z,39.93
2019-05-18T05:16:17.131Z,40.57
2019-05-18T05:18:47.747Z,43.90
2019-05-18T05:21:19.636Z,43.20
2019-05-18T05:23:49.936Z,53.83
2019-05-18T05:26:20.430Z,48.60
2019-05-18T05:28:50.460Z,47.47
2019-05-18T05:31:20.936Z,52.30
2019-05-18T05:33:52.544Z,50.50
2019-05-18T05:36:22.679Z,54.47
2019-05-18T05:38:52.836Z,51.10
2019-05-18T05:41:23.098Z,51.40
2019-05-18T05:43:53.228Z,51.83
2019-05-18T05:46:23.582Z,53.30
2019-05-18T05:48:53.679Z,52.33
2019-05-18T05:51:24.226Z,53.90
2019-05-18T05:53:54.946Z,53.70
2019-05-18T05:56:24.967Z,42.03
2019-05-18T05:58:55.430Z,47.90
2019-05-18T06:01:25.667Z,40.93
2019-05-18T06:03:55.822Z,42.93
2019-05-18T06:06:26.285Z,42.03
2019-05-18T06:08:56.543Z,42.00
2019-05-18T06:11:26.588Z,44.60
2019-05-18T06:13:57.137Z,40.17
2019-05-18T06:16:27.407Z,40.13
2019-05-18T06:18:57.263Z,41.17
2019-05-18T06:21:27.179Z,39.20
2019-05-18T06:23:58.991Z,37.87
2019-05-18T06:26:28.955Z,42.73
2019-05-18T06:28:59.127Z,38.43
2019-05-18T06:31:29.187Z,45.83
2019-05-18T06:33:59.506Z,40.30
2019-05-18T06:36:29.683Z,35.93
2019-05-18T06:39:00.246Z,37.53
2019-05-18T06:41:30.210Z,35.30
2019-05-18T06:44:00.340Z,34.33
2019-05-18T06:46:30.759Z,38.23
2019-05-18T06:49:01.126Z,32.73
2019-05-18T06:51:31.188Z,36.63
2019-05-18T06:54:01.946Z,36.50
2019-05-18T06:56:33.386Z,34.07
2019-05-18T06:59:03.891Z,35.20
2019-05-18T07:01:34.256Z,33.10
2019-05-18T07:04:04.452Z,33.20
2019-05-18T07:06:34.676Z,29.43
2019-05-18T07:09:13.263Z,31.17
2019-05-18T07:11:39.122Z,32.00
2019-05-18T07:14:09.270Z,31.90
2019-05-18T07:16:40.047Z,32.63
2019-05-18T07:19:15.026Z,28.80
2019-05-18T07:21:51.011Z,31.83
2019-05-18T07:24:21.251Z,30.73
2019-05-18T07:26:51.352Z,28.33
2019-05-18T07:29:21.537Z,30.07
2019-05-18T07:31:52.311Z,30.70
2019-05-18T07:34:27.528Z,30.00
2019-05-18T07:37:00.845Z,27.90
2019-05-18T07:39:36.094Z,28.37
2019-05-18T07:42:05.707Z,33.10
2019-05-18T07:44:35.576Z,28.40
2019-05-18T07:47:05.831Z,26.00
2019-05-18T07:49:36.117Z,28.60
2019-05-18T07:52:06.119Z,27.97
2019-05-18T07:54:36.424Z,25.17
2019-05-18T07:57:06.894Z,27.57
2019-05-18T07:59:36.846Z,24.80
2019-05-18T08:02:08.808Z,21.20
2019-05-18T08:04:39.833Z,21.53
2019-05-18T08:07:09.888Z,19.17
2019-05-18T08:09:40.996Z,23.73
2019-05-18T08:12:11.095Z,22.80
2019-05-18T08:14:41.226Z,19.10
2019-05-18T08:17:14.555Z,22.10
2019-05-18T08:19:48.957Z,19.47
2019-05-18T08:22:20.241Z,18.17
2019-05-18T08:24:51.153Z,17.60
2019-05-18T08:27:21.378Z,17.03
2019-05-18T08:29:51.819Z,14.47
2019-05-18T08:32:21.905Z,13.60
2019-05-18T08:34:52.355Z,14.27
2019-05-18T08:37:22.717Z,15.27
2019-05-18T08:39:52.893Z,13.70
2019-05-18T08:42:24.659Z,14.00
2019-05-18T08:44:55.191Z,16.57
2019-05-18T08:47:25.412Z,14.40
2019-05-18T08:49:55.950Z,12.30
2019-05-18T08:52:26.448Z,17.60
2019-05-18T08:54:56.728Z,10.63
2019-05-18T08:57:26.706Z,12.27
2019-05-18T08:59:56.907Z,9.67
2019-05-18T09:02:27.319Z,9.90
2019-05-18T09:04:57.905Z,10.57
2019-05-18T09:07:27.936Z,13.50
2019-05-18T09:09:58.241Z,10.60
2019-05-18T09:12:28.972Z,9.47
2019-05-18T09:14:58.939Z,8.83
2019-05-18T09:17:30.305Z,9.77
2019-05-18T09:20:01.382Z,9.93
2019-05-18T09:22:31.370Z,9.60
2019-05-18T09:25:01.577Z,8.57
2019-05-18T09:27:32.050Z,9.20
2019-05-18T09:30:02.486Z,10.90
2019-05-18T09:32:32.555Z,8.90
2019-05-18T09:35:02.825Z,9.03
2019-05-18T09:37:33.286Z,9.70
2019-05-18T09:40:03.667Z,10.07
2019-05-18T09:42:33.584Z,9.33
2019-05-18T09:45:05.661Z,7.07
2019-05-18T09:47:35.540Z,7.43
2019-05-18T09:50:07.296Z,9.23
2019-05-18T09:52:46.200Z,8.97
2019-05-18T09:55:09.881Z,7.23
2019-05-18T09:57:40.183Z,6.97
2019-05-18T10:00:11.248Z,8.60
2019-05-18T10:02:41.924Z,7.83
2019-05-18T10:05:15.094Z,11.13
2019-05-18T10:07:45.477Z,7.13
2019-05-18T10:10:15.976Z,8.87
2019-05-18T10:12:51.247Z,5.33
2019-05-18T10:15:21.543Z,6.53
2019-05-18T10:17:51.632Z,5.40
2019-05-18T10:20:22.281Z,5.60
2019-05-18T10:23:04.120Z,6.87
2019-05-18T10:25:24.260Z,7.40
2019-05-18T10:27:54.899Z,11.00
2019-05-18T10:30:24.970Z,10.47
2019-05-18T10:32:55.060Z,8.07
2019-05-18T10:35:25.268Z,6.23
2019-05-18T10:37:56.775Z,6.97
2019-05-18T10:40:27.032Z,7.63
2019-05-18T10:42:57.577Z,6.43
2019-05-18T10:45:27.856Z,7.80
2019-05-18T10:47:59.797Z,6.73
2019-05-18T10:50:30.185Z,6.77
2019-05-18T10:53:00.302Z,9.00
2019-05-18T10:55:30.643Z,10.13
2019-05-18T10:58:00.854Z,9.83
2019-05-18T11:00:30.872Z,7.30
2019-05-18T11:03:01.615Z,7.30
2019-05-18T11:05:31.697Z,5.73
2019-05-18T11:08:01.888Z,7.90
2019-05-18T11:10:32.280Z,6.37
2019-05-18T11:13:02.665Z,9.37
2019-05-18T11:15:32.824Z,6.33
2019-05-18T11:18:03.600Z,7.37
2019-05-18T11:20:33.890Z,7.83
2019-05-18T11:23:04.226Z,7.17
2019-05-18T11:25:35.044Z,5.90
2019-05-18T11:28:04.993Z,7.90
2019-05-18T11:30:35.056Z,5.67
2019-05-18T11:33:05.519Z,6.37
2019-05-18T11:35:35.609Z,8.63
2019-05-18T11:38:06.160Z,6.80
2019-05-18T11:40:36.696Z,6.77
2019-05-18T11:43:06.699Z,6.30
2019-05-18T11:45:36.690Z,5.13
2019-05-18T11:48:06.884Z,6.33
2019-05-18T11:50:41.213Z,6.40
2019-05-18T11:53:20.836Z,6.23
2019-05-18T11:55:51.302Z,5.57
2019-05-18T11:58:22.244Z,5.70
2019-05-18T12:00:52.487Z,10.80
2019-05-18T12:03:24.979Z,6.83
2019-05-18T12:06:03.410Z,6.93
2019-05-18T12:08:33.342Z,6.10
2019-05-18T12:11:05.563Z,5.90
2019-05-18T12:13:36.140Z,5.63
2019-05-18T12:16:07.405Z,7.00
2019-05-18T12:18:43.819Z,6.00
2019-05-18T12:21:13.919Z,9.33
2019-05-18T12:23:43.955Z,7.10
2019-05-18T12:26:14.554Z,5.73
2019-05-18T12:28:58.426Z,5.00
2019-05-18T12:31:28.659Z,5.47
2019-05-18T12:34:04.311Z,5.33
2019-05-18T12:36:37.612Z,7.13
2019-05-18T12:39:15.613Z,4.80
2019-05-18T12:41:55.472Z,5.50
2019-05-18T12:44:25.849Z,5.20
2019-05-18T12:46:57.376Z,6.90
2019-05-18T12:49:27.650Z,6.00
2019-05-18T12:51:58.016Z,11.23
2019-05-18T12:54:34.005Z,6.60
2019-05-18T12:57:00.137Z,5.77
2019-05-18T12:59:30.708Z,6.50
2019-05-18T13:02:01.015Z,6.40
2019-05-18T13:04:30.952Z,6.97
2019-05-18T13:07:01.093Z,5.10
2019-05-18T13:09:31.828Z,5.63
2019-05-18T13:12:01.866Z,5.63
2019-05-18T13:14:36.490Z,5.50
2019-05-18T13:17:06.614Z,5.50
2019-05-18T13:19:36.994Z,5.77
2019-05-18T13:22:07.259Z,5.10
2019-05-18T13:24:45.276Z,5.03
2019-05-18T13:27:17.001Z,6.33
2019-05-18T13:29:50.049Z,5.90
2019-05-18T13:32:23.798Z,5.43
2019-05-18T13:34:58.805Z,5.63
2019-05-18T13:37:30.049Z,5.13
2019-05-18T13:40:03.618Z,4.80
2019-05-18T13:42:42.809Z,6.30
2019-05-18T13:45:14.286Z,5.13
2019-05-18T13:47:45.020Z,5.33
2019-05-18T13:50:24.837Z,5.77
2019-05-18T13:52:55.099Z,5.20
2019-05-18T13:55:25.795Z,5.97
2019-05-18T13:57:55.846Z,6.03
2019-05-18T14:00:25.978Z,5.27
2019-05-18T14:02:56.238Z,5.53
2019-05-18T14:05:26.331Z,4.90
2019-05-18T14:07:56.692Z,5.20
2019-05-18T14:10:29.552Z,5.30
2019-05-18T14:12:59.564Z,5.83
2019-05-18T14:15:29.814Z,5.93
2019-05-18T14:18:00.395Z,5.10
2019-05-18T14:20:30.488Z,5.63
2019-05-18T14:23:00.604Z,6.30
2019-05-18T14:25:30.737Z,5.17
2019-05-18T14:28:01.724Z,5.70
2019-05-18T14:30:32.387Z,5.50
2019-05-18T14:33:02.760Z,5.20
2019-05-18T14:35:33.622Z,4.90
2019-05-18T14:38:04.049Z,11.23
2019-05-18T14:40:34.515Z,4.97
2019-05-18T14:43:05.222Z,6.00
2019-05-18T14:45:35.377Z,5.23
2019-05-18T14:48:10.186Z,5.70
2019-05-18T14:50:40.618Z,6.27
2019-05-18T14:53:11.215Z,5.47
2019-05-18T14:55:43.376Z,5.00
2019-05-18T14:58:13.519Z,5.63
2019-05-18T15:00:43.758Z,5.27
2019-05-18T15:03:13.931Z,5.27
2019-05-18T15:05:43.895Z,5.60
2019-05-18T15:08:14.234Z,5.60
2019-05-18T15:10:47.223Z,6.03
2019-05-18T15:13:17.170Z,7.07
2019-05-18T15:15:47.412Z,4.90
2019-05-18T15:18:17.807Z,6.40
2019-05-18T15:20:47.970Z,6.87
2019-05-18T15:23:18.463Z,7.43
2019-05-18T15:25:51.097Z,6.07
2019-05-18T15:28:20.778Z,5.70
2019-05-18T15:30:50.692Z,6.67
2019-05-18T15:33:21.016Z,5.43
2019-05-18T15:35:51.074Z,5.43
2019-05-18T15:38:22.338Z,5.90
2019-05-18T15:40:52.674Z,4.50
2019-05-18T15:43:23.028Z,5.77
2019-05-18T15:45:52.979Z,6.30
2019-05-18T15:48:23.426Z,5.40
2019-05-18T15:50:53.392Z,6.90
2019-05-18T15:53:23.283Z,5.43
2019-05-18T15:56:05.317Z,7.10
2019-05-18T15:58:25.503Z,8.73
2019-05-18T16:00:55.555Z,9.10
2019-05-18T16:03:25.960Z,8.53
2019-05-18T16:05:56.203Z,8.43
2019-05-18T16:08:26.828Z,9.77
2019-05-18T16:10:57.288Z,9.33
2019-05-18T16:13:27.641Z,8.33
2019-05-18T16:15:58.073Z,10.83
2019-05-18T16:18:28.171Z,11.50
2019-05-18T16:20:58.494Z,7.83
2019-05-18T16:23:28.480Z,5.70
2019-05-18T16:25:59.104Z,5.67
2019-05-18T16:28:29.096Z,6.63
2019-05-18T16:30:59.296Z,11.90
2019-05-18T16:33:29.434Z,5.73
2019-05-18T16:35:59.636Z,6.83
2019-05-18T16:38:29.976Z,6.23
2019-05-18T16:41:00.104Z,6.70
2019-05-18T16:43:30.172Z,6.13
2019-05-18T16:46:00.092Z,6.93
2019-05-18T16:48:30.119Z,6.90
2019-05-18T16:51:00.100Z,5.00
2019-05-18T16:53:30.311Z,6.53
2019-05-18T16:56:00.352Z,6.97
2019-05-18T16:58:30.697Z,5.77
2019-05-18T17:01:01.130Z,6.57
2019-05-18T17:03:31.461Z,5.90
2019-05-18T17:06:02.372Z,6.73
2019-05-18T17:08:32.688Z,7.33
2019-05-18T17:11:03.054Z,6.20
2019-05-18T17:13:34.031Z,6.80
2019-05-18T17:16:04.159Z,6.10
2019-05-18T17:18:34.278Z,5.93
2019-05-18T17:21:05.574Z,6.37
2019-05-18T17:23:35.660Z,5.40
2019-05-18T17:26:06.126Z,7.20
2019-05-18T17:28:36.824Z,6.20
2019-05-18T17:31:06.947Z,5.93
2019-05-18T17:33:37.174Z,5.63
2019-05-18T17:36:07.444Z,4.90
2019-05-18T17:38:38.042Z,6.50
2019-05-18T17:41:08.879Z,6.10
2019-05-18T17:43:39.002Z,6.27
2019-05-18T17:46:09.325Z,5.83
2019-05-18T17:48:39.572Z,5.30
2019-05-18T17:51:09.638Z,7.07
2019-05-18T17:53:40.483Z,5.37
2019-05-18T17:56:11.879Z,6.27
2019-05-18T17:58:41.927Z,5.13
2019-05-18T18:01:12.248Z,6.23
2019-05-18T18:03:42.634Z,7.40
2019-05-18T18:06:12.575Z,5.03
2019-05-18T18:08:43.135Z,8.23
2019-05-18T18:11:13.490Z,6.00
2019-05-18T18:13:43.587Z,5.43
2019-05-18T18:16:13.539Z,5.97
2019-05-18T18:18:43.724Z,5.30
2019-05-18T18:21:14.194Z,5.37
2019-05-18T18:23:44.286Z,5.40
2019-05-18T18:26:15.168Z,6.10
2019-05-18T18:28:45.388Z,8.17
2019-05-18T18:31:15.473Z,5.60
2019-05-18T18:33:45.679Z,5.13
2019-05-18T18:36:15.990Z,5.53
2019-05-18T18:38:46.195Z,7.20
2019-05-18T18:41:16.629Z,5.57
2019-05-18T18:43:49.151Z,5.67
2019-05-18T18:46:19.931Z,5.70
2019-05-18T18:48:50.091Z,5.50
2019-05-18T18:51:20.019Z,5.37
2019-05-18T18:53:50.610Z,7.27
2019-05-18T18:56:20.874Z,6.50
2019-05-18T18:58:51.151Z,7.20
2019-05-18T19:01:21.404Z,5.63
2019-05-18T19:03:51.534Z,11.57
2019-05-18T19:06:21.891Z,6.73
2019-05-18T19:08:52.199Z,7.67
2019-05-18T19:11:22.369Z,6.50
2019-05-18T19:13:52.320Z,7.60
2019-05-18T19:16:22.760Z,7.70
2019-05-18T19:18:53.309Z,7.07
2019-05-18T19:21:23.698Z,7.30
2019-05-18T19:23:54.132Z,9.50
2019-05-18T19:26:24.239Z,7.03
2019-05-18T19:28:54.546Z,7.10
2019-05-18T19:31:24.598Z,9.63
2019-05-18T19:33:54.727Z,7.80
2019-05-18T19:36:24.748Z,9.00
2019-05-18T19:38:57.650Z,9.27
2019-05-18T19:41:27.814Z,10.33
2019-05-18T19:43:57.746Z,8.30
2019-05-18T19:46:28.300Z,10.40
2019-05-18T19:48:58.269Z,10.33
2019-05-18T19:51:28.367Z,8.80
2019-05-18T19:53:58.518Z,12.60
2019-05-18T19:56:28.538Z,11.93
2019-05-18T19:58:58.559Z,14.00
2019-05-18T20:01:29.438Z,10.87
2019-05-18T20:03:59.348Z,12.07
2019-05-18T20:06:29.327Z,10.20
2019-05-18T20:08:59.553Z,12.07
2019-05-18T20:11:29.616Z,13.80
2019-05-18T20:13:59.608Z,11.53
2019-05-18T20:16:30.115Z,12.87
2019-05-18T20:19:00.251Z,12.80
2019-05-18T20:21:30.294Z,12.07
2019-05-18T20:24:00.447Z,13.50
2019-05-18T20:26:30.838Z,15.33
2019-05-18T20:29:00.736Z,16.20
2019-05-18T20:31:30.874Z,13.70
2019-05-18T20:34:01.153Z,16.07
2019-05-18T20:36:31.320Z,15.40
2019-05-18T20:39:01.663Z,16.50
2019-05-18T20:41:32.472Z,16.90
2019-05-18T20:44:02.539Z,15.53
2019-05-18T20:46:33.342Z,16.13
2019-05-18T20:49:03.302Z,17.90
2019-05-18T20:51:33.223Z,17.90
2019-05-18T20:54:03.727Z,17.30
2019-05-18T20:56:35.407Z,18.07
2019-05-18T20:59:06.545Z,21.30
2019-05-18T21:01:37.891Z,20.43
2019-05-18T21:04:08.914Z,20.43
2019-05-18T21:06:40.014Z,23.17
2019-05-18T21:09:11.295Z,21.70
2019-05-18T21:11:44.391Z,20.00
2019-05-18T21:14:14.411Z,18.70
2019-05-18T21:16:45.160Z,21.27
2019-05-18T21:19:15.016Z,21.97
2019-05-18T21:21:45.247Z,20.37
2019-05-18T21:24:15.380Z,23.97
2019-05-18T21:26:46.073Z,24.33
2019-05-18T21:29:16.146Z,25.27
2019-05-18T21:31:46.299Z,21.90
2019-05-18T21:34:18.926Z,23.83
2019-05-18T21:36:48.474Z,23.63
2019-05-18T21:39:18.552Z,21.83
2019-05-18T21:41:49.016Z,27.60
2019-05-18T21:44:19.096Z,25.43
2019-05-18T21:46:49.406Z,23.57
2019-05-18T21:49:19.520Z,23.00
2019-05-18T21:51:49.460Z,23.97
2019-05-18T21:54:19.450Z,20.97
2019-05-18T21:56:50.203Z,21.63
2019-05-18T21:59:20.508Z,20.83
2019-05-18T22:01:50.537Z,19.90
2019-05-18T22:04:20.798Z,18.00
2019-05-18T22:06:50.906Z,18.30
2019-05-18T22:09:21.052Z,17.17
2019-05-18T22:11:52.661Z,16.00
2019-05-18T22:14:22.779Z,18.77
2019-05-18T22:16:52.965Z,18.30
2019-05-18T22:19:23.467Z,16.57
2019-05-18T22:21:53.607Z,20.10
2019-05-18T22:24:24.295Z,18.13
2019-05-18T22:26:54.650Z,18.13
2019-05-18T22:29:24.831Z,18.07
2019-05-18T22:31:55.053Z,17.30
2019-05-18T22:34:25.032Z,16.43
2019-05-18T22:36:55.119Z,16.80
2019-05-18T22:39:26.638Z,26.83
2019-05-18T22:41:57.497Z,21.63
2019-05-18T22:44:27.648Z,25.37
2019-05-18T22:46:57.807Z,29.00
2019-05-18T22:49:28.458Z,32.40
2019-05-18T22:51:58.765Z,27.47
2019-05-18T22:54:29.041Z,31.03
2019-05-18T22:56:59.038Z,31.97
2019-05-18T22:59:29.540Z,28.63
2019-05-18T23:01:59.776Z,27.10
2019-05-18T23:04:29.728Z,27.40
2019-05-18T23:06:59.948Z,29.37
2019-05-18T23:09:30.138Z,24.43
2019-05-18T23:12:00.209Z,28.03
2019-05-18T23:14:30.605Z,27.53
2019-05-18T23:17:00.996Z,25.27
2019-05-18T23:19:31.545Z,21.47
2019-05-18T23:22:02.468Z,26.20
2019-05-18T23:24:36.767Z,24.43
2019-05-18T23:27:07.326Z,23.17
2019-05-18T23:29:39.219Z,30.10
2019-05-18T23:32:10.168Z,28.03
2019-05-18T23:34:41.233Z,32.93
2019-05-18T23:37:12.658Z,32.40
2019-05-18T23:39:44.290Z,34.27
2019-05-18T23:42:15.463Z,32.60
2019-05-18T23:44:47.335Z,31.97
2019-05-18T23:47:17.700Z,30.97
2019-05-18T23:49:48.856Z,33.03
2019-05-18T23:52:20.130Z,33.20
2019-05-18T23:54:51.991Z,38.23
2019-05-18T23:57:23.035Z,30.10
2019-05-18T23:59:56.276Z,25.40
